Terminal Aerodrome Forecast
Issued by NWS Los Angeles, CA

Home | Current Version | Previous Version | Text Only | Print | Product List | Glossary On
Versions: 1 2 3 4 5 6 7 8 9 10 11 12 13 14 15 16 17 18 19 20 21 22 23 24 25 26 27 28
000
FTUS46 KLOX 191300 AAA
TAFSMX
TAF AMD
KSMX 191318Z 1913/2012 VRB03KT 5SM BR OVC018
     FM191700 31007KT P6SM OVC022
     FM192100 31015KT P6SM SKC
     FM200300 31007KT P6SM BKN025
     FM200900 VRB03KT P6SM OVC015=

USA.gov is the U.S. government's official web portal to all federal, state and local government web resources and services.